Terminal Aerodrome Forecast
Issued by NWS Pittsburgh, PA

Current Version | Previous Version | Graphics & Text | Print | Product List | Glossary On
Versions: 1 2 3 4 5 6 7 8 9 10 11 12 13 14 15 16 17 18 19 20 21 22 23 24 25 26 27 28 29 30
000
FTUS41 KPBZ 201000 AAD
TAFPIT
TAF AMD
KPIT 201000Z 2010/2112 14003KT 6SM BR OVC040
      TEMPO 2011/2013 5SM -SHRA BR
     FM201400 18005KT P6SM BKN040
     FM210800 14003KT 4SM BR SCT040=

USA.gov is the U.S. government's official web portal to all federal, state and local government web resources and services.